sensor_id;sensor_type;location;lat;lon;timestamp;P1;durP1;ratioP1;P2;durP2;ratioP2
23730;SDS011;12046;44.702;10.622;2022-12-18T00:01:02;37.30;;;32.47;;
23730;SDS011;12046;44.702;10.622;2022-12-18T00:03:34;37.50;;;33.60;;
23730;SDS011;12046;44.702;10.622;2022-12-18T00:06:01;35.72;;;31.95;;
23730;SDS011;12046;44.702;10.622;2022-12-18T00:08:27;38.63;;;32.85;;
23730;SDS011;12046;44.702;10.622;2022-12-18T00:10:53;42.85;;;38.17;;
23730;SDS011;12046;44.702;10.622;2022-12-18T00:13:19;44.33;;;37.75;;
23730;SDS011;12046;44.702;10.622;2022-12-18T00:15:46;44.97;;;40.10;;
23730;SDS011;12046;44.702;10.622;2022-12-18T00:18:12;43.67;;;39.03;;
23730;SDS011;12046;44.702;10.622;2022-12-18T00:20:38;37.58;;;33.40;;
23730;SDS011;12046;44.702;10.622;2022-12-18T00:23:05;45.00;;;40.10;;
23730;SDS011;12046;44.702;10.622;2022-12-18T00:25:35;46.38;;;41.33;;
23730;SDS011;12046;44.702;10.622;2022-12-18T00:28:02;42.35;;;36.08;;
23730;SDS011;12046;44.702;10.622;2022-12-18T00:30:29;39.70;;;31.88;;
23730;SDS011;12046;44.702;10.622;2022-12-18T00:32:55;39.03;;;33.80;;
23730;SDS011;12046;44.702;10.622;2022-12-18T00:35:22;41.95;;;37.25;;
23730;SDS011;12046;44.702;10.622;2022-12-18T00:37:48;41.83;;;35.15;;
23730;SDS011;12046;44.702;10.622;2022-12-18T00:40:14;37.45;;;33.22;;
23730;SDS011;12046;44.702;10.622;2022-12-18T00:42:40;39.88;;;35.20;;
23730;SDS011;12046;44.702;10.622;2022-12-18T00:45:22;42.60;;;38.00;;
23730;SDS011;12046;44.702;10.622;2022-12-18T00:47:49;40.38;;;36.00;;
23730;SDS011;12046;44.702;10.622;2022-12-18T00:50:15;40.35;;;34.15;;
23730;SDS011;12046;44.702;10.622;2022-12-18T00:52:41;37.60;;;32.28;;
23730;SDS011;12046;44.702;10.622;2022-12-18T00:55:08;37.67;;;33.55;;
23730;SDS011;12046;44.702;10.622;2022-12-18T00:57:34;43.00;;;38.33;;
23730;SDS011;12046;44.702;10.622;2022-12-18T01:00:01;43.70;;;37.08;;
23730;SDS011;12046;44.702;10.622;2022-12-18T01:02:28;38.65;;;34.58;;
23730;SDS011;12046;44.702;10.622;2022-12-18T01:04:54;40.20;;;35.97;;
23730;SDS011;12046;44.702;10.622;2022-12-18T01:07:20;35.88;;;31.95;;
23730;SDS011;12046;44.702;10.622;2022-12-18T01:09:46;43.00;;;36.03;;
23730;SDS011;12046;44.702;10.622;2022-12-18T01:12:12;42.70;;;38.22;;
23730;SDS011;12046;44.702;10.622;2022-12-18T01:14:38;38.00;;;33.88;;
23730;SDS011;12046;44.702;10.622;2022-12-18T01:17:04;40.03;;;34.67;;
23730;SDS011;12046;44.702;10.622;2022-12-18T01:19:30;40.05;;;35.38;;
23730;SDS011;12046;44.702;10.622;2022-12-18T01:21:56;35.40;;;29.67;;
23730;SDS011;12046;44.702;10.622;2022-12-18T01:24:22;42.95;;;37.70;;
23730;SDS011;12046;44.702;10.622;2022-12-18T01:26:48;35.83;;;31.92;;
23730;SDS011;12046;44.702;10.622;2022-12-18T01:29:14;34.78;;;29.98;;
23730;SDS011;12046;44.702;10.622;2022-12-18T01:31:39;35.97;;;31.98;;
23730;SDS011;12046;44.702;10.622;2022-12-18T01:34:05;38.45;;;33.70;;
23730;SDS011;12046;44.702;10.622;2022-12-18T01:36:32;36.33;;;31.65;;
23730;SDS011;12046;44.702;10.622;2022-12-18T01:39:02;31.10;;;27.42;;
23730;SDS011;12046;44.702;10.622;2022-12-18T01:41:33;36.22;;;30.35;;
23730;SDS011;12046;44.702;10.622;2022-12-18T01:49:59;29.15;;;26.13;;
23730;SDS011;12046;44.702;10.622;2022-12-18T01:52:34;29.90;;;26.90;;
23730;SDS011;12046;44.702;10.622;2022-12-18T01:55:02;26.92;;;21.95;;
23730;SDS011;12046;44.702;10.622;2022-12-18T01:57:30;25.27;;;22.63;;
23730;SDS011;12046;44.702;10.622;2022-12-18T01:59:59;27.88;;;25.00;;
23730;SDS011;12046;44.702;10.622;2022-12-18T02:02:28;26.45;;;23.65;;
23730;SDS011;12046;44.702;10.622;2022-12-18T02:04:55;24.83;;;22.15;;
23730;SDS011;12046;44.702;10.622;2022-12-18T02:10:36;26.23;;;21.48;;
23730;SDS011;12046;44.702;10.622;2022-12-18T02:12:48;20.42;;;18.33;;
23730;SDS011;12046;44.702;10.622;2022-12-18T02:18:27;22.98;;;20.20;;
23730;SDS011;12046;44.702;10.622;2022-12-18T02:21:00;18.15;;;16.25;;
23730;SDS011;12046;44.702;10.622;2022-12-18T02:23:43;17.23;;;15.43;;
23730;SDS011;12046;44.702;10.622;2022-12-18T02:29:00;17.20;;;15.57;;
23730;SDS011;12046;44.702;10.622;2022-12-18T02:31:32;15.07;;;13.38;;
23730;SDS011;12046;44.702;10.622;2022-12-18T02:34:28;14.60;;;12.57;;
23730;SDS011;12046;44.702;10.622;2022-12-18T02:36:57;15.57;;;13.95;;
23730;SDS011;12046;44.702;10.622;2022-12-18T02:39:26;15.90;;;14.02;;
23730;SDS011;12046;44.702;10.622;2022-12-18T02:41:54;15.13;;;13.50;;
23730;SDS011;12046;44.702;10.622;2022-12-18T02:44:21;14.35;;;12.38;;
23730;SDS011;12046;44.702;10.622;2022-12-18T02:46:51;13.35;;;11.43;;
23730;SDS011;12046;44.702;10.622;2022-12-18T02:54:46;11.75;;;10.55;;
23730;SDS011;12046;44.702;10.622;2022-12-18T02:57:13;10.60;;;9.50;;
23730;SDS011;12046;44.702;10.622;2022-12-18T02:59:42;8.75;;;7.75;;
23730;SDS011;12046;44.702;10.622;2022-12-18T03:02:40;7.57;;;6.88;;
23730;SDS011;12046;44.702;10.622;2022-12-18T03:05:20;7.88;;;7.07;;
23730;SDS011;12046;44.702;10.622;2022-12-18T03:07:52;7.97;;;7.15;;
23730;SDS011;12046;44.702;10.622;2022-12-18T03:10:29;8.57;;;7.72;;
23730;SDS011;12046;44.702;10.622;2022-12-18T03:13:01;8.35;;;7.55;;
23730;SDS011;12046;44.702;10.622;2022-12-18T03:15:41;9.30;;;6.65;;
23730;SDS011;12046;44.702;10.622;2022-12-18T03:18:12;9.32;;;6.90;;
23730;SDS011;12046;44.702;10.622;2022-12-18T03:20:41;7.32;;;6.63;;
23730;SDS011;12046;44.702;10.622;2022-12-18T03:23:11;7.25;;;6.55;;
23730;SDS011;12046;44.702;10.622;2022-12-18T03:25:41;8.00;;;7.20;;
23730;SDS011;12046;44.702;10.622;2022-12-18T03:28:12;6.85;;;6.15;;
23730;SDS011;12046;44.702;10.622;2022-12-18T03:30:41;8.30;;;7.47;;
23730;SDS011;12046;44.702;10.622;2022-12-18T03:33:29;8.02;;;7.22;;
23730;SDS011;12046;44.702;10.622;2022-12-18T03:36:02;7.50;;;6.70;;
23730;SDS011;12046;44.702;10.622;2022-12-18T03:38:29;8.00;;;7.30;;
23730;SDS011;12046;44.702;10.622;2022-12-18T03:43:32;9.95;;;7.97;;
23730;SDS011;12046;44.702;10.622;2022-12-18T03:46:20;7.60;;;6.82;;
23730;SDS011;12046;44.702;10.622;2022-12-18T03:48:58;9.23;;;8.32;;
23730;SDS011;12046;44.702;10.622;2022-12-18T03:51:28;8.60;;;7.70;;
23730;SDS011;12046;44.702;10.622;2022-12-18T03:54:20;8.70;;;7.80;;
23730;SDS011;12046;44.702;10.622;2022-12-18T03:56:48;10.27;;;8.52;;
23730;SDS011;12046;44.702;10.622;2022-12-18T03:59:26;10.65;;;9.23;;
23730;SDS011;12046;44.702;10.622;2022-12-18T04:01:54;9.80;;;8.80;;
23730;SDS011;12046;44.702;10.622;2022-12-18T04:04:23;10.85;;;8.43;;
23730;SDS011;12046;44.702;10.622;2022-12-18T04:06:50;10.45;;;7.97;;
23730;SDS011;12046;44.702;10.622;2022-12-18T04:09:17;8.85;;;7.85;;
23730;SDS011;12046;44.702;10.622;2022-12-18T04:11:44;8.50;;;7.70;;
23730;SDS011;12046;44.702;10.622;2022-12-18T04:14:12;10.05;;;9.00;;
23730;SDS011;12046;44.702;10.622;2022-12-18T04:16:38;9.80;;;8.80;;
23730;SDS011;12046;44.702;10.622;2022-12-18T04:19:04;9.95;;;8.82;;
23730;SDS011;12046;44.702;10.622;2022-12-18T04:21:30;10.15;;;8.98;;
23730;SDS011;12046;44.702;10.622;2022-12-18T04:23:56;10.43;;;8.57;;
23730;SDS011;12046;44.702;10.622;2022-12-18T04:26:22;9.85;;;8.95;;
23730;SDS011;12046;44.702;10.622;2022-12-18T04:28:48;13.75;;;10.23;;
23730;SDS011;12046;44.702;10.622;2022-12-18T04:31:14;15.68;;;10.90;;
23730;SDS011;12046;44.702;10.622;2022-12-18T04:33:40;11.75;;;9.35;;
23730;SDS011;12046;44.702;10.622;2022-12-18T04:36:06;10.70;;;9.30;;
23730;SDS011;12046;44.702;10.622;2022-12-18T04:38:32;11.18;;;10.13;;
23730;SDS011;12046;44.702;10.622;2022-12-18T04:40:58;10.43;;;9.43;;
23730;SDS011;12046;44.702;10.622;2022-12-18T04:43:24;13.20;;;10.60;;
23730;SDS011;12046;44.702;10.622;2022-12-18T04:45:50;10.50;;;9.07;;
23730;SDS011;12046;44.702;10.622;2022-12-18T04:48:15;12.07;;;10.88;;
23730;SDS011;12046;44.702;10.622;2022-12-18T04:50:41;11.38;;;10.13;;
23730;SDS011;12046;44.702;10.622;2022-12-18T04:53:07;9.98;;;8.98;;
23730;SDS011;12046;44.702;10.622;2022-12-18T04:55:33;10.38;;;9.38;;
23730;SDS011;12046;44.702;10.622;2022-12-18T04:57:59;9.90;;;8.85;;
23730;SDS011;12046;44.702;10.622;2022-12-18T05:00:25;10.55;;;8.45;;
23730;SDS011;12046;44.702;10.622;2022-12-18T05:02:51;10.15;;;9.10;;
23730;SDS011;12046;44.702;10.622;2022-12-18T05:05:17;9.70;;;8.75;;
23730;SDS011;12046;44.702;10.622;2022-12-18T05:07:43;9.88;;;8.88;;
23730;SDS011;12046;44.702;10.622;2022-12-18T05:10:09;9.80;;;8.90;;
23730;SDS011;12046;44.702;10.622;2022-12-18T05:12:35;10.32;;;8.48;;
23730;SDS011;12046;44.702;10.622;2022-12-18T05:15:21;9.25;;;8.35;;
23730;SDS011;12046;44.702;10.622;2022-12-18T05:17:47;11.07;;;9.43;;
23730;SDS011;12046;44.702;10.622;2022-12-18T05:20:13;12.07;;;10.45;;
23730;SDS011;12046;44.702;10.622;2022-12-18T05:22:39;14.57;;;12.18;;
23730;SDS011;12046;44.702;10.622;2022-12-18T05:25:05;19.08;;;15.45;;
23730;SDS011;12046;44.702;10.622;2022-12-18T05:27:31;19.27;;;16.83;;
23730;SDS011;12046;44.702;10.622;2022-12-18T05:29:57;19.33;;;17.23;;
23730;SDS011;12046;44.702;10.622;2022-12-18T05:32:23;21.10;;;18.75;;
23730;SDS011;12046;44.702;10.622;2022-12-18T05:34:49;19.60;;;17.50;;
23730;SDS011;12046;44.702;10.622;2022-12-18T05:37:15;19.02;;;17.05;;
23730;SDS011;12046;44.702;10.622;2022-12-18T05:39:42;21.08;;;18.77;;
23730;SDS011;12046;44.702;10.622;2022-12-18T05:42:08;20.92;;;18.65;;
23730;SDS011;12046;44.702;10.622;2022-12-18T05:44:34;21.25;;;18.63;;
23730;SDS011;12046;44.702;10.622;2022-12-18T05:47:00;25.02;;;22.38;;
23730;SDS011;12046;44.702;10.622;2022-12-18T05:49:26;24.00;;;21.50;;
23730;SDS011;12046;44.702;10.622;2022-12-18T05:51:52;22.55;;;20.13;;
23730;SDS011;12046;44.702;10.622;2022-12-18T05:54:18;21.58;;;19.05;;
23730;SDS011;12046;44.702;10.622;2022-12-18T05:56:44;24.75;;;21.50;;
23730;SDS011;12046;44.702;10.622;2022-12-18T05:59:10;25.67;;;22.98;;
23730;SDS011;12046;44.702;10.622;2022-12-18T06:01:36;23.33;;;19.15;;
23730;SDS011;12046;44.702;10.622;2022-12-18T06:04:01;25.33;;;22.50;;
23730;SDS011;12046;44.702;10.622;2022-12-18T06:06:27;27.77;;;24.88;;
23730;SDS011;12046;44.702;10.622;2022-12-18T06:08:54;24.92;;;20.98;;
23730;SDS011;12046;44.702;10.622;2022-12-18T06:11:21;26.63;;;23.73;;
23730;SDS011;12046;44.702;10.622;2022-12-18T06:13:49;26.20;;;22.40;;
23730;SDS011;12046;44.702;10.622;2022-12-18T06:16:16;23.58;;;21.17;;
23730;SDS011;12046;44.702;10.622;2022-12-18T06:18:42;25.50;;;22.80;;
23730;SDS011;12046;44.702;10.622;2022-12-18T06:21:08;23.73;;;21.25;;
23730;SDS011;12046;44.702;10.622;2022-12-18T06:23:34;27.02;;;24.15;;
23730;SDS011;12046;44.702;10.622;2022-12-18T06:26:06;26.55;;;23.77;;
23730;SDS011;12046;44.702;10.622;2022-12-18T06:28:33;25.13;;;21.48;;
23730;SDS011;12046;44.702;10.622;2022-12-18T06:30:59;26.10;;;23.30;;
23730;SDS011;12046;44.702;10.622;2022-12-18T06:33:28;24.20;;;21.70;;
23730;SDS011;12046;44.702;10.622;2022-12-18T06:35:54;27.95;;;24.95;;
23730;SDS011;12046;44.702;10.622;2022-12-18T06:38:25;27.25;;;24.55;;
23730;SDS011;12046;44.702;10.622;2022-12-18T06:40:51;27.55;;;24.30;;
23730;SDS011;12046;44.702;10.622;2022-12-18T06:43:17;25.65;;;22.95;;
23730;SDS011;12046;44.702;10.622;2022-12-18T06:45:43;27.35;;;24.55;;
23730;SDS011;12046;44.702;10.622;2022-12-18T06:48:09;27.65;;;24.75;;
23730;SDS011;12046;44.702;10.622;2022-12-18T06:50:35;32.08;;;28.88;;
23730;SDS011;12046;44.702;10.622;2022-12-18T06:53:00;35.42;;;31.80;;
23730;SDS011;12046;44.702;10.622;2022-12-18T06:55:26;34.50;;;30.95;;
23730;SDS011;12046;44.702;10.622;2022-12-18T06:57:52;32.00;;;28.80;;
23730;SDS011;12046;44.702;10.622;2022-12-18T07:00:18;35.13;;;31.08;;
23730;SDS011;12046;44.702;10.622;2022-12-18T07:02:44;27.27;;;24.38;;
23730;SDS011;12046;44.702;10.622;2022-12-18T07:05:10;31.15;;;27.85;;
23730;SDS011;12046;44.702;10.622;2022-12-18T07:07:36;34.05;;;30.63;;
23730;SDS011;12046;44.702;10.622;2022-12-18T07:10:02;30.88;;;27.77;;
23730;SDS011;12046;44.702;10.622;2022-12-18T07:12:29;33.55;;;30.05;;
23730;SDS011;12046;44.702;10.622;2022-12-18T07:14:55;33.28;;;29.88;;
23730;SDS011;12046;44.702;10.622;2022-12-18T07:17:21;33.08;;;29.58;;
23730;SDS011;12046;44.702;10.622;2022-12-18T07:19:47;39.22;;;35.15;;
23730;SDS011;12046;44.702;10.622;2022-12-18T07:22:12;33.90;;;30.23;;
23730;SDS011;12046;44.702;10.622;2022-12-18T07:24:38;31.73;;;28.30;;
23730;SDS011;12046;44.702;10.622;2022-12-18T07:27:04;36.28;;;32.25;;
23730;SDS011;12046;44.702;10.622;2022-12-18T07:29:30;38.15;;;34.25;;
23730;SDS011;12046;44.702;10.622;2022-12-18T07:31:56;32.85;;;28.75;;
23730;SDS011;12046;44.702;10.622;2022-12-18T07:34:22;30.45;;;25.70;;
23730;SDS011;12046;44.702;10.622;2022-12-18T07:36:48;35.65;;;31.92;;
23730;SDS011;12046;44.702;10.622;2022-12-18T07:39:14;34.00;;;28.42;;
23730;SDS011;12046;44.702;10.622;2022-12-18T07:41:40;32.67;;;28.83;;
23730;SDS011;12046;44.702;10.622;2022-12-18T07:44:11;31.63;;;28.42;;
23730;SDS011;12046;44.702;10.622;2022-12-18T07:46:37;31.58;;;27.40;;
23730;SDS011;12046;44.702;10.622;2022-12-18T07:49:03;32.03;;;28.63;;
23730;SDS011;12046;44.702;10.622;2022-12-18T07:51:29;30.17;;;26.70;;
23730;SDS011;12046;44.702;10.622;2022-12-18T07:53:56;30.60;;;27.10;;
23730;SDS011;12046;44.702;10.622;2022-12-18T07:56:22;31.38;;;27.98;;
23730;SDS011;12046;44.702;10.622;2022-12-18T07:58:48;30.65;;;27.55;;
23730;SDS011;12046;44.702;10.622;2022-12-18T08:01:14;32.22;;;28.98;;
23730;SDS011;12046;44.702;10.622;2022-12-18T08:03:40;32.03;;;28.63;;
23730;SDS011;12046;44.702;10.622;2022-12-18T08:06:07;28.23;;;25.33;;
23730;SDS011;12046;44.702;10.622;2022-12-18T08:08:34;27.40;;;24.60;;
23730;SDS011;12046;44.702;10.622;2022-12-18T08:11:00;28.02;;;25.40;;
23730;SDS011;12046;44.702;10.622;2022-12-18T08:13:27;24.17;;;21.67;;
23730;SDS011;12046;44.702;10.622;2022-12-18T08:15:59;23.33;;;20.88;;
23730;SDS011;12046;44.702;10.622;2022-12-18T08:18:27;23.42;;;21.00;;
23730;SDS011;12046;44.702;10.622;2022-12-18T08:20:53;24.25;;;21.90;;
23730;SDS011;12046;44.702;10.622;2022-12-18T08:23:20;26.55;;;23.92;;
23730;SDS011;12046;44.702;10.622;2022-12-18T08:25:49;30.80;;;27.55;;
23730;SDS011;12046;44.702;10.622;2022-12-18T08:28:16;31.10;;;23.92;;
23730;SDS011;12046;44.702;10.622;2022-12-18T08:30:42;25.38;;;22.27;;
23730;SDS011;12046;44.702;10.622;2022-12-18T08:33:08;24.52;;;21.15;;
23730;SDS011;12046;44.702;10.622;2022-12-18T08:35:34;23.17;;;20.17;;
23730;SDS011;12046;44.702;10.622;2022-12-18T08:38:02;23.95;;;21.23;;
23730;SDS011;12046;44.702;10.622;2022-12-18T08:40:28;22.67;;;20.02;;
23730;SDS011;12046;44.702;10.622;2022-12-18T08:42:54;22.67;;;20.23;;
23730;SDS011;12046;44.702;10.622;2022-12-18T08:45:39;22.30;;;20.00;;
23730;SDS011;12046;44.702;10.622;2022-12-18T08:48:05;21.73;;;19.52;;
23730;SDS011;12046;44.702;10.622;2022-12-18T08:50:30;23.77;;;21.38;;
23730;SDS011;12046;44.702;10.622;2022-12-18T08:52:56;22.98;;;20.52;;
23730;SDS011;12046;44.702;10.622;2022-12-18T08:55:22;23.77;;;21.38;;
23730;SDS011;12046;44.702;10.622;2022-12-18T08:57:48;22.30;;;20.00;;
23730;SDS011;12046;44.702;10.622;2022-12-18T09:00:15;23.80;;;20.55;;
23730;SDS011;12046;44.702;10.622;2022-12-18T09:02:41;22.63;;;20.23;;
23730;SDS011;12046;44.702;10.622;2022-12-18T09:05:07;23.65;;;21.30;;
23730;SDS011;12046;44.702;10.622;2022-12-18T09:07:34;22.88;;;20.52;;
23730;SDS011;12046;44.702;10.622;2022-12-18T09:10:00;24.75;;;22.13;;
23730;SDS011;12046;44.702;10.622;2022-12-18T09:12:26;28.15;;;25.25;;
23730;SDS011;12046;44.702;10.622;2022-12-18T09:14:52;27.10;;;24.40;;
23730;SDS011;12046;44.702;10.622;2022-12-18T09:17:18;25.25;;;22.65;;
23730;SDS011;12046;44.702;10.622;2022-12-18T09:19:44;26.05;;;23.35;;
23730;SDS011;12046;44.702;10.622;2022-12-18T09:22:10;24.38;;;21.77;;
23730;SDS011;12046;44.702;10.622;2022-12-18T09:24:36;28.77;;;25.77;;
23730;SDS011;12046;44.702;10.622;2022-12-18T09:27:02;25.55;;;22.63;;
23730;SDS011;12046;44.702;10.622;2022-12-18T09:29:29;24.80;;;21.95;;
23730;SDS011;12046;44.702;10.622;2022-12-18T09:31:54;30.25;;;26.70;;
23730;SDS011;12046;44.702;10.622;2022-12-18T09:34:20;27.92;;;24.92;;
23730;SDS011;12046;44.702;10.622;2022-12-18T09:36:51;27.73;;;24.83;;
23730;SDS011;12046;44.702;10.622;2022-12-18T09:39:17;26.25;;;23.55;;
23730;SDS011;12046;44.702;10.622;2022-12-18T09:41:47;28.05;;;25.08;;
23730;SDS011;12046;44.702;10.622;2022-12-18T09:44:25;32.85;;;28.35;;
23730;SDS011;12046;44.702;10.622;2022-12-18T09:49:42;29.27;;;26.02;;
23730;SDS011;12046;44.702;10.622;2022-12-18T09:52:33;28.42;;;25.42;;
23730;SDS011;12046;44.702;10.622;2022-12-18T09:55:13;26.95;;;24.05;;
23730;SDS011;12046;44.702;10.622;2022-12-18T09:57:45;28.15;;;24.70;;
23730;SDS011;12046;44.702;10.622;2022-12-18T10:00:18;26.63;;;23.80;;
23730;SDS011;12046;44.702;10.622;2022-12-18T10:02:46;27.02;;;24.23;;
23730;SDS011;12046;44.702;10.622;2022-12-18T10:05:14;33.70;;;30.02;;
23730;SDS011;12046;44.702;10.622;2022-12-18T10:07:47;30.13;;;26.92;;
23730;SDS011;12046;44.702;10.622;2022-12-18T10:16:19;27.08;;;24.17;;
23730;SDS011;12046;44.702;10.622;2022-12-18T10:19:11;24.15;;;21.65;;
23730;SDS011;12046;44.702;10.622;2022-12-18T10:21:46;22.38;;;20.15;;
23730;SDS011;12046;44.702;10.622;2022-12-18T10:26:50;21.75;;;19.55;;
23730;SDS011;12046;44.702;10.622;2022-12-18T10:29:18;24.27;;;21.63;;
23730;SDS011;12046;44.702;10.622;2022-12-18T10:31:45;26.63;;;23.90;;
23730;SDS011;12046;44.702;10.622;2022-12-18T10:34:11;36.38;;;30.27;;
23730;SDS011;12046;44.702;10.622;2022-12-18T10:36:37;24.50;;;21.92;;
23730;SDS011;12046;44.702;10.622;2022-12-18T10:39:20;22.00;;;19.70;;
23730;SDS011;12046;44.702;10.622;2022-12-18T10:41:48;19.52;;;17.73;;
23730;SDS011;12046;44.702;10.622;2022-12-18T10:44:18;21.33;;;19.30;;
23730;SDS011;12046;44.702;10.622;2022-12-18T10:46:46;20.85;;;18.85;;
23730;SDS011;12046;44.702;10.622;2022-12-18T10:49:18;20.45;;;18.55;;
23730;SDS011;12046;44.702;10.622;2022-12-18T10:51:47;21.05;;;18.92;;
23730;SDS011;12046;44.702;10.622;2022-12-18T10:54:18;21.92;;;19.83;;
23730;SDS011;12046;44.702;10.622;2022-12-18T10:59:15;22.52;;;20.30;;
23730;SDS011;12046;44.702;10.622;2022-12-18T11:04:22;23.40;;;21.00;;
23730;SDS011;12046;44.702;10.622;2022-12-18T11:07:00;21.73;;;19.60;;
23730;SDS011;12046;44.702;10.622;2022-12-18T11:09:34;25.00;;;22.42;;
23730;SDS011;12046;44.702;10.622;2022-12-18T11:12:08;22.20;;;19.95;;
23730;SDS011;12046;44.702;10.622;2022-12-18T11:14:43;21.40;;;18.90;;
23730;SDS011;12046;44.702;10.622;2022-12-18T11:17:18;23.13;;;20.85;;
23730;SDS011;12046;44.702;10.622;2022-12-18T11:19:51;24.77;;;22.30;;
23730;SDS011;12046;44.702;10.622;2022-12-18T11:22:31;21.83;;;19.65;;
23730;SDS011;12046;44.702;10.622;2022-12-18T11:25:00;20.30;;;18.40;;
23730;SDS011;12046;44.702;10.622;2022-12-18T11:27:32;20.20;;;18.25;;
23730;SDS011;12046;44.702;10.622;2022-12-18T11:32:54;21.63;;;19.42;;
23730;SDS011;12046;44.702;10.622;2022-12-18T11:38:20;23.38;;;21.13;;
23730;SDS011;12046;44.702;10.622;2022-12-18T11:41:14;23.13;;;20.73;;
23730;SDS011;12046;44.702;10.622;2022-12-18T11:43:45;23.63;;;21.33;;
23730;SDS011;12046;44.702;10.622;2022-12-18T11:46:38;24.23;;;21.63;;
23730;SDS011;12046;44.702;10.622;2022-12-18T11:49:20;22.67;;;20.45;;
23730;SDS011;12046;44.702;10.622;2022-12-18T11:54:37;20.95;;;18.85;;
23730;SDS011;12046;44.702;10.622;2022-12-18T11:57:07;22.45;;;20.25;;
23730;SDS011;12046;44.702;10.622;2022-12-18T12:02:17;24.40;;;22.05;;
23730;SDS011;12046;44.702;10.622;2022-12-18T12:07:36;20.75;;;18.77;;
23730;SDS011;12046;44.702;10.622;2022-12-18T12:21:04;21.25;;;19.35;;
23730;SDS011;12046;44.702;10.622;2022-12-18T12:26:36;21.55;;;19.45;;
23730;SDS011;12046;44.702;10.622;2022-12-18T12:29:26;21.73;;;19.50;;
23730;SDS011;12046;44.702;10.622;2022-12-18T12:32:07;20.10;;;18.40;;
23730;SDS011;12046;44.702;10.622;2022-12-18T12:34:51;21.08;;;19.15;;
23730;SDS011;12046;44.702;10.622;2022-12-18T12:40:07;21.70;;;19.77;;
23730;SDS011;12046;44.702;10.622;2022-12-18T12:42:41;22.63;;;20.50;;
23730;SDS011;12046;44.702;10.622;2022-12-18T12:51:30;24.38;;;22.27;;
23730;SDS011;12046;44.702;10.622;2022-12-18T12:53:59;23.77;;;21.67;;
23730;SDS011;12046;44.702;10.622;2022-12-18T12:57:11;23.25;;;21.25;;
23730;SDS011;12046;44.702;10.622;2022-12-18T12:59:29;21.65;;;19.58;;
23730;SDS011;12046;44.702;10.622;2022-12-18T13:02:05;23.13;;;21.13;;
23730;SDS011;12046;44.702;10.622;2022-12-18T13:07:50;22.88;;;20.88;;
23730;SDS011;12046;44.702;10.622;2022-12-18T13:10:24;22.85;;;20.67;;
23730;SDS011;12046;44.702;10.622;2022-12-18T13:12:56;23.20;;;21.00;;
23730;SDS011;12046;44.702;10.622;2022-12-18T13:20:42;23.73;;;21.33;;
23730;SDS011;12046;44.702;10.622;2022-12-18T13:31:13;21.73;;;19.67;;
23730;SDS011;12046;44.702;10.622;2022-12-18T13:34:21;21.70;;;19.70;;
23730;SDS011;12046;44.702;10.622;2022-12-18T13:36:50;22.95;;;20.75;;
23730;SDS011;12046;44.702;10.622;2022-12-18T13:41:43;27.50;;;24.90;;
23730;SDS011;12046;44.702;10.622;2022-12-18T13:46:50;26.25;;;23.75;;
23730;SDS011;12046;44.702;10.622;2022-12-18T13:49:35;26.05;;;23.60;;
23730;SDS011;12046;44.702;10.622;2022-12-18T13:52:17;27.45;;;24.67;;
23730;SDS011;12046;44.702;10.622;2022-12-18T13:54:53;26.90;;;24.30;;
23730;SDS011;12046;44.702;10.622;2022-12-18T13:57:26;28.52;;;25.60;;
23730;SDS011;12046;44.702;10.622;2022-12-18T14:00:19;29.52;;;26.63;;
23730;SDS011;12046;44.702;10.622;2022-12-18T14:02:54;29.50;;;26.50;;
23730;SDS011;12046;44.702;10.622;2022-12-18T14:05:28;30.83;;;27.83;;
23730;SDS011;12046;44.702;10.622;2022-12-18T14:07:55;31.05;;;27.83;;
23730;SDS011;12046;44.702;10.622;2022-12-18T14:10:31;34.10;;;30.42;;
23730;SDS011;12046;44.702;10.622;2022-12-18T14:12:58;37.50;;;29.50;;
23730;SDS011;12046;44.702;10.622;2022-12-18T14:15:41;30.67;;;27.38;;
23730;SDS011;12046;44.702;10.622;2022-12-18T14:20:49;29.27;;;25.35;;
23730;SDS011;12046;44.702;10.622;2022-12-18T14:26:02;30.77;;;27.52;;
23730;SDS011;12046;44.702;10.622;2022-12-18T14:28:29;31.02;;;26.83;;
23730;SDS011;12046;44.702;10.622;2022-12-18T14:30:55;32.10;;;28.58;;
23730;SDS011;12046;44.702;10.622;2022-12-18T14:33:22;33.25;;;27.02;;
23730;SDS011;12046;44.702;10.622;2022-12-18T14:35:57;32.65;;;28.05;;
23730;SDS011;12046;44.702;10.622;2022-12-18T14:38:30;33.25;;;29.63;;
23730;SDS011;12046;44.702;10.622;2022-12-18T14:41:09;31.98;;;28.50;;
23730;SDS011;12046;44.702;10.622;2022-12-18T14:43:37;33.08;;;29.30;;
23730;SDS011;12046;44.702;10.622;2022-12-18T14:46:05;34.67;;;29.05;;
23730;SDS011;12046;44.702;10.622;2022-12-18T14:48:51;35.30;;;29.92;;
23730;SDS011;12046;44.702;10.622;2022-12-18T14:51:21;33.42;;;28.75;;
23730;SDS011;12046;44.702;10.622;2022-12-18T14:56:24;33.38;;;29.20;;
23730;SDS011;12046;44.702;10.622;2022-12-18T14:59:01;35.30;;;29.88;;
23730;SDS011;12046;44.702;10.622;2022-12-18T15:01:39;36.15;;;32.17;;
23730;SDS011;12046;44.702;10.622;2022-12-18T15:04:33;41.78;;;33.17;;
23730;SDS011;12046;44.702;10.622;2022-12-18T15:07:09;38.10;;;31.85;;
23730;SDS011;12046;44.702;10.622;2022-12-18T15:09:39;40.55;;;32.40;;
23730;SDS011;12046;44.702;10.622;2022-12-18T15:12:32;45.05;;;35.17;;
23730;SDS011;12046;44.702;10.622;2022-12-18T15:15:05;44.13;;;34.80;;
23730;SDS011;12046;44.702;10.622;2022-12-18T15:17:58;38.63;;;33.13;;
23730;SDS011;12046;44.702;10.622;2022-12-18T15:23:24;39.08;;;30.85;;
23730;SDS011;12046;44.702;10.622;2022-12-18T15:26:01;42.67;;;33.97;;
23730;SDS011;12046;44.702;10.622;2022-12-18T15:36:22;37.47;;;29.77;;
23730;SDS011;12046;44.702;10.622;2022-12-18T15:38:49;41.00;;;32.10;;
23730;SDS011;12046;44.702;10.622;2022-12-18T15:41:17;45.20;;;31.98;;
23730;SDS011;12046;44.702;10.622;2022-12-18T15:43:45;44.60;;;32.00;;
23730;SDS011;12046;44.702;10.622;2022-12-18T15:46:14;40.08;;;32.53;;
23730;SDS011;12046;44.702;10.622;2022-12-18T15:48:48;42.25;;;32.15;;
23730;SDS011;12046;44.702;10.622;2022-12-18T15:51:20;40.13;;;29.92;;
23730;SDS011;12046;44.702;10.622;2022-12-18T15:53:54;40.30;;;30.88;;
23730;SDS011;12046;44.702;10.622;2022-12-18T15:56:22;41.72;;;31.02;;
23730;SDS011;12046;44.702;10.622;2022-12-18T15:59:14;43.47;;;31.98;;
23730;SDS011;12046;44.702;10.622;2022-12-18T16:01:48;42.08;;;31.60;;
23730;SDS011;12046;44.702;10.622;2022-12-18T16:04:18;44.97;;;32.25;;
23730;SDS011;12046;44.702;10.622;2022-12-18T16:06:48;42.90;;;32.20;;
23730;SDS011;12046;44.702;10.622;2022-12-18T16:09:14;42.53;;;31.15;;
23730;SDS011;12046;44.702;10.622;2022-12-18T16:11:41;42.15;;;31.70;;
23730;SDS011;12046;44.702;10.622;2022-12-18T16:16:49;43.65;;;30.02;;
23730;SDS011;12046;44.702;10.622;2022-12-18T16:19:17;43.95;;;32.33;;
23730;SDS011;12046;44.702;10.622;2022-12-18T16:21:45;50.35;;;37.30;;
23730;SDS011;12046;44.702;10.622;2022-12-18T16:24:15;45.00;;;35.00;;
23730;SDS011;12046;44.702;10.622;2022-12-18T16:26:43;52.42;;;36.05;;